Terminal Aerodrome Forecast
Issued by NWS Buffalo, NY

Home | Current Version | Previous Version | Text Only | Print | Product List | Glossary On
Versions: 1 2 3 4 5 6 7 8 9 10 11 12 13 14 15 16 17 18 19 20 21 22 23
000
FTUS41 KBUF 221505 AAA
TAFROC
TAF AMD
KROC 221505Z 2215/2312 21012KT P6SM SCT025 BKN050
     FM221800 26013G22KT P6SM SCT050
     FM230100 23008KT P6SM FEW070=

USA.gov is the U.S. government's official web portal to all federal, state and local government web resources and services.